Wednesday, October 24, 2018, 3:03 AM GMT
Back to Local

CYYG, Charlottetown, P. E. I.

Location: , , Canada Lat: 46.283
Local Time: 3:03 AM GMT ( 3:03 GMT) Lon: -63.133
Time Zone: GMT Elev: 157 ft

Show me the last for .
Show Coded

Time T Td Feel RH Dir Speed Gust Alt SLP Vis Weather Sky Remarks
2018-10-24 02:00 30 25 27 80 90° 3 - 30.24 30.25 15 CLR None
2018-10-24 01:00 34 27 27 74 100° 8 - 30.25 30.26 15 FEW070 None
2018-10-24 00:00 34 23 30 64 100° 5 - 30.26 30.27 15 FEW070 None
2018-10-23 23:00 36 27 33 69 40° 3 - 30.26 30.27 15 SCT072 BKN260 None
2018-10-23 22:28 36 27 - 69 120° 2 - 30.26 30.27 15 BKN076 BKN260 None
2018-10-23 22:00 37 27 34 64 110° 5 - 30.26 30.27 15 FEW030 BKN076 BKN260 None
2018-10-23 21:00 41 23 - 48 360° 2 - 30.25 30.27 15 FEW030 SCT083 SCT260 None
2018-10-23 20:00 41 21 38 44 280° 5 - 30.24 30.25 15 FEW032 FEW085 None
2018-10-23 19:00 43 21 38 41 230° 8 - 30.24 30.25 15 FEW032 FEW100 None
2018-10-23 18:00 43 21 37 41 230° 10 - 30.24 30.24 15 FEW030 None
2018-10-23 17:00 41 19 35 41 240° 10 - 30.23 30.24 15 FEW030 None
2018-10-23 16:00 41 21 34 44 230° 12 - 30.23 30.24 15 FEW030 None
2018-10-23 15:00 39 21 30 48 260° 12 18 30.24 30.25 15 FEW030 None
2018-10-23 14:00 37 23 27 55 260° 10 18 30.23 30.24 15 FEW020 None
2018-10-23 13:00 36 23 25 59 240° 12 18 30.23 30.24 15 FEW020 None
2018-10-23 12:00 32 23 27 68 250° 5 - 30.22 30.23 15 FEW022 None
2018-10-23 11:00 30 21 24 68 240° 6 - 30.20 30.21 15 FEW022 None
2018-10-23 10:00 30 21 24 68 240° 6 - 30.18 30.19 15 FEW025 None
2018-10-23 09:00 30 21 24 68 260° 6 - 30.16 30.17 15 CLR None
2018-10-23 08:00 30 21 23 68 250° 7 - 30.14 30.15 15 CLR None
2018-10-23 07:00 32 21 26 63 240° 6 - 30.13 30.14 15 CLR None
2018-10-23 06:00 32 21 26 63 240° 7 - 30.12 30.13 15 FEW050 None
2018-10-23 05:00 32 21 26 63 240° 6 - 30.11 30.11 15 FEW054 None
2018-10-23 04:00 34 21 27 59 240° 8 - 30.09 30.10 15 FEW050 None

Support USWX by starting your Amazon purchase here.